TimeEST,TemperatureF,Dew PointF,Humidity,Sea Level PressureIn,VisibilityMPH,Wind Direction,Wind SpeedMPH,Gust SpeedMPH,PrecipitationIn,Events,Conditions,WindDirDegrees,DateUTC
12:15 AM,24.3,21.2,88,30.05,7.0,SSE,8.1,-,N/A,Snow,Light Snow,150,2013-01-03 05:15:00
12:34 AM,24.3,21.0,87,30.04,7.0,SSE,6.9,-,N/A,Snow,Light Snow,150,2013-01-03 05:34:00
12:55 AM,24.3,20.8,87,30.03,7.0,SSE,5.8,-,N/A,Snow,Light Snow,150,2013-01-03 05:55:00
1:14 AM,24.4,21.0,87,30.03,10.0,SSE,8.1,-,N/A,,Overcast,150,2013-01-03 06:14:00
1:35 AM,24.4,21.0,87,30.02,10.0,SSE,9.2,-,N/A,,Overcast,160,2013-01-03 06:35:00
1:54 AM,24.6,21.2,87,30.02,10.0,SSE,8.1,-,N/A,,Overcast,160,2013-01-03 06:54:00
2:15 AM,24.6,21.6,88,30.01,7.0,South,6.9,-,N/A,,Overcast,170,2013-01-03 07:15:00
2:34 AM,24.8,21.9,89,30.01,7.0,SSE,6.9,-,N/A,Snow,Light Snow,160,2013-01-03 07:34:00
2:55 AM,25.3,22.1,87,30.00,7.0,South,6.9,-,N/A,Snow,Light Snow,170,2013-01-03 07:55:00
3:14 AM,25.5,22.3,88,30.00,7.0,South,6.9,-,N/A,,Overcast,170,2013-01-03 08:14:00
3:35 AM,25.7,22.6,88,29.99,7.0,South,6.9,-,N/A,Snow,Light Snow,180,2013-01-03 08:35:00
3:54 AM,26.1,23.0,88,29.98,5.0,South,6.9,-,N/A,Snow,Light Snow,190,2013-01-03 08:54:00
4:15 AM,26.2,23.0,88,29.98,5.0,South,9.2,-,N/A,Snow,Light Snow,190,2013-01-03 09:15:00
4:34 AM,26.4,23.2,88,29.97,5.0,South,8.1,-,N/A,Snow,Light Snow,190,2013-01-03 09:34:00
4:55 AM,26.2,23.2,88,29.96,4.0,South,5.8,-,N/A,Snow,Light Snow,190,2013-01-03 09:55:00
5:15 AM,26.4,23.0,87,29.96,7.0,South,5.8,-,N/A,Snow,Light Snow,190,2013-01-03 10:15:00
5:34 AM,26.6,23.5,88,29.95,10.0,South,5.8,-,N/A,,Overcast,190,2013-01-03 10:34:00
5:55 AM,27.1,24.3,89,29.95,10.0,SSW,6.9,-,N/A,,Overcast,200,2013-01-03 10:55:00
6:14 AM,27.5,24.6,89,29.96,10.0,SSW,5.8,-,N/A,,Overcast,210,2013-01-03 11:14:00
6:34 AM,27.7,25.0,90,29.96,7.0,SSW,4.6,-,N/A,,Overcast,210,2013-01-03 11:34:00
6:55 AM,28.2,25.3,89,29.95,7.0,SW,6.9,-,N/A,,Overcast,220,2013-01-03 11:55:00
7:14 AM,29.3,24.6,83,29.96,10.0,West,13.8,-,N/A,,Overcast,260,2013-01-03 12:14:00
7:34 AM,29.3,24.3,81,29.96,7.0,West,15.0,24.2,N/A,,Overcast,270,2013-01-03 12:34:00
7:54 AM,28.9,23.7,81,29.96,10.0,West,15.0,-,N/A,,Overcast,270,2013-01-03 12:54:00
8:15 AM,28.8,23.0,79,29.97,10.0,West,10.4,20.7,N/A,,Overcast,270,2013-01-03 13:15:00
8:35 AM,28.4,22.6,79,29.97,10.0,West,13.8,-,N/A,,Overcast,270,2013-01-03 13:35:00
8:55 AM,28.2,22.5,79,29.97,10.0,West,15.0,18.4,N/A,,Overcast,260,2013-01-03 13:55:00
9:15 AM,28.0,22.5,80,29.97,10.0,West,16.1,-,N/A,,Overcast,270,2013-01-03 14:15:00
9:34 AM,28.0,22.6,80,29.98,10.0,West,13.8,-,N/A,,Overcast,270,2013-01-03 14:34:00
9:55 AM,28.0,22.3,79,29.98,10.0,West,16.1,19.6,N/A,,Overcast,280,2013-01-03 14:55:00
10:15 AM,27.7,22.1,80,29.99,10.0,West,15.0,23.0,N/A,,Overcast,280,2013-01-03 15:15:00
10:34 AM,27.7,21.7,78,30.00,7.0,West,16.1,-,N/A,Snow,Light Snow,280,2013-01-03 15:34:00
10:55 AM,27.7,21.7,78,30.00,7.0,West,13.8,-,N/A,,Overcast,280,2013-01-03 15:55:00
11:15 AM,28.2,22.6,80,30.00,10.0,West,16.1,-,N/A,,Overcast,270,2013-01-03 16:15:00
11:34 AM,28.6,22.8,79,29.99,10.0,WNW,15.0,-,N/A,,Overcast,290,2013-01-03 16:34:00
11:55 AM,29.1,23.0,78,29.99,10.0,West,16.1,-,N/A,,Overcast,280,2013-01-03 16:55:00
12:15 PM,29.3,23.5,79,29.99,10.0,West,13.8,17.3,N/A,Snow,Light Snow,270,2013-01-03 17:15:00
12:34 PM,29.7,24.1,80,29.98,10.0,WNW,16.1,-,N/A,,Overcast,290,2013-01-03 17:34:00
12:55 PM,29.8,24.4,80,29.98,7.0,West,18.4,23.0,N/A,,Overcast,280,2013-01-03 17:55:00
1:15 PM,30.0,24.3,79,29.98,10.0,West,17.3,23.0,N/A,,Overcast,280,2013-01-03 18:15:00
1:35 PM,30.0,24.8,81,29.98,5.0,NW,15.0,24.2,N/A,,Haze,310,2013-01-03 18:35:00
1:55 PM,29.7,24.8,82,29.98,4.0,WNW,13.8,23.0,N/A,,Overcast,300,2013-01-03 18:55:00
2:14 PM,29.3,24.3,81,29.98,7.0,WNW,13.8,23.0,N/A,,Overcast,300,2013-01-03 19:14:00
2:35 PM,29.5,23.4,78,29.99,10.0,WNW,16.1,19.6,N/A,,Overcast,290,2013-01-03 19:35:00
2:54 PM,29.5,21.9,73,29.99,7.0,WNW,15.0,20.7,N/A,,Overcast,300,2013-01-03 19:54:00
3:15 PM,29.1,22.1,75,30.00,10.0,WNW,17.3,-,N/A,,Overcast,290,2013-01-03 20:15:00
3:35 PM,28.9,22.6,77,30.00,7.0,West,16.1,20.7,N/A,,Overcast,280,2013-01-03 20:35:00
3:55 PM,28.9,22.1,76,30.01,10.0,WNW,17.3,23.0,N/A,,Overcast,290,2013-01-03 20:55:00
4:15 PM,28.9,21.0,72,30.02,10.0,WNW,15.0,23.0,N/A,,Overcast,290,2013-01-03 21:15:00
4:35 PM,29.1,19.6,68,30.02,10.0,WNW,10.4,21.9,N/A,,Overcast,290,2013-01-03 21:35:00
4:55 PM,29.1,19.9,69,30.03,10.0,West,13.8,-,N/A,,Overcast,280,2013-01-03 21:55:00
5:15 PM,29.3,19.4,67,30.03,10.0,West,15.0,-,N/A,,Overcast,280,2013-01-03 22:15:00
5:35 PM,29.3,20.7,70,30.04,10.0,West,13.8,19.6,N/A,,Overcast,280,2013-01-03 22:35:00
5:54 PM,29.3,19.0,66,30.04,10.0,West,15.0,-,N/A,,Overcast,280,2013-01-03 22:54:00
6:15 PM,29.3,20.1,69,30.04,10.0,West,15.0,19.6,N/A,,Overcast,270,2013-01-03 23:15:00
6:34 PM,29.1,19.4,67,30.04,10.0,West,13.8,-,N/A,,Mostly Cloudy,260,2013-01-03 23:34:00
6:55 PM,29.7,21.0,70,30.04,10.0,West,17.3,20.7,N/A,,Overcast,260,2013-01-03 23:55:00
7:14 PM,29.8,19.9,67,30.04,10.0,West,18.4,24.2,N/A,,Overcast,260,2013-01-04 00:14:00
7:34 PM,30.2,21.6,70,30.03,10.0,West,15.0,19.6,N/A,,Overcast,260,2013-01-04 00:34:00
7:55 PM,30.2,20.3,67,30.03,10.0,West,16.1,23.0,N/A,,Overcast,260,2013-01-04 00:55:00
8:14 PM,30.2,21.0,69,30.03,10.0,WSW,15.0,21.9,N/A,,Overcast,250,2013-01-04 01:14:00
8:35 PM,30.2,21.2,69,30.03,10.0,WSW,18.4,25.3,N/A,,Overcast,250,2013-01-04 01:35:00
8:54 PM,30.2,21.6,70,30.02,10.0,WSW,15.0,20.7,N/A,,Overcast,250,2013-01-04 01:54:00
9:14 PM,30.0,22.3,73,30.01,10.0,WSW,13.8,24.2,N/A,,Overcast,240,2013-01-04 02:14:00
9:35 PM,29.7,21.9,73,30.00,10.0,WSW,15.0,24.2,N/A,,Overcast,240,2013-01-04 02:35:00
9:54 PM,29.3,21.9,74,30.00,10.0,WSW,18.4,23.0,N/A,,Overcast,250,2013-01-04 02:54:00
10:15 PM,29.1,21.2,72,29.98,10.0,SW,16.1,26.5,N/A,,Overcast,230,2013-01-04 03:15:00
10:34 PM,28.8,21.7,75,29.98,7.0,WSW,17.3,27.6,N/A,,Mostly Cloudy,240,2013-01-04 03:34:00
10:55 PM,28.4,21.6,76,29.99,7.0,SW,17.3,28.8,N/A,,Overcast,230,2013-01-04 03:55:00
11:14 PM,28.4,22.1,77,29.98,7.0,SW,15.0,29.9,N/A,,Overcast,230,2013-01-04 04:14:00
11:35 PM,28.4,22.3,78,29.97,7.0,SW,18.4,25.3,N/A,,Overcast,230,2013-01-04 04:35:00
11:54 PM,28.4,22.1,77,29.97,5.0,SW,19.6,34.5,N/A,,Haze,230,2013-01-04 04:54:00